sensor_id;sensor_type;location;lat;lon;timestamp;P1;durP1;ratioP1;P2;durP2;ratioP2
71503;SDS011;59323;50.874;7.028;2024-01-25T00:01:05;29.05;;;4.55;;
71503;SDS011;59323;50.874;7.028;2024-01-25T00:03:31;39.33;;;3.90;;
71503;SDS011;59323;50.874;7.028;2024-01-25T00:05:56;37.20;;;4.53;;
71503;SDS011;59323;50.874;7.028;2024-01-25T00:08:22;31.23;;;4.40;;
71503;SDS011;59323;50.874;7.028;2024-01-25T00:10:47;37.53;;;4.43;;
71503;SDS011;59323;50.874;7.028;2024-01-25T00:13:12;27.23;;;3.70;;
71503;SDS011;59323;50.874;7.028;2024-01-25T00:15:38;34.70;;;4.10;;
71503;SDS011;59323;50.874;7.028;2024-01-25T00:18:03;29.97;;;4.17;;
71503;SDS011;59323;50.874;7.028;2024-01-25T00:20:29;25.52;;;3.80;;
71503;SDS011;59323;50.874;7.028;2024-01-25T00:22:54;33.67;;;3.97;;
71503;SDS011;59323;50.874;7.028;2024-01-25T00:25:19;37.37;;;4.23;;
71503;SDS011;59323;50.874;7.028;2024-01-25T00:27:45;27.63;;;3.70;;
71503;SDS011;59323;50.874;7.028;2024-01-25T00:30:10;31.40;;;4.97;;
71503;SDS011;59323;50.874;7.028;2024-01-25T00:32:36;32.22;;;4.65;;
71503;SDS011;59323;50.874;7.028;2024-01-25T00:35:02;36.53;;;4.43;;
71503;SDS011;59323;50.874;7.028;2024-01-25T00:37:27;30.48;;;3.95;;
71503;SDS011;59323;50.874;7.028;2024-01-25T00:39:53;32.37;;;4.40;;
71503;SDS011;59323;50.874;7.028;2024-01-25T00:42:19;31.15;;;4.78;;
71503;SDS011;59323;50.874;7.028;2024-01-25T00:44:47;32.33;;;3.33;;
71503;SDS011;59323;50.874;7.028;2024-01-25T00:47:13;37.85;;;4.05;;
71503;SDS011;59323;50.874;7.028;2024-01-25T00:49:38;20.03;;;3.50;;
71503;SDS011;59323;50.874;7.028;2024-01-25T00:52:04;26.75;;;3.55;;
71503;SDS011;59323;50.874;7.028;2024-01-25T00:54:30;32.23;;;4.00;;
71503;SDS011;59323;50.874;7.028;2024-01-25T00:56:55;32.80;;;5.07;;
71503;SDS011;59323;50.874;7.028;2024-01-25T00:59:21;34.30;;;4.90;;
71503;SDS011;59323;50.874;7.028;2024-01-25T01:01:47;29.63;;;4.70;;
71503;SDS011;59323;50.874;7.028;2024-01-25T01:04:13;28.42;;;4.55;;
71503;SDS011;59323;50.874;7.028;2024-01-25T01:06:42;33.67;;;4.20;;
71503;SDS011;59323;50.874;7.028;2024-01-25T01:09:07;35.40;;;4.35;;
71503;SDS011;59323;50.874;7.028;2024-01-25T01:11:33;34.77;;;4.50;;
71503;SDS011;59323;50.874;7.028;2024-01-25T01:13:58;32.27;;;3.90;;
71503;SDS011;59323;50.874;7.028;2024-01-25T01:16:24;25.15;;;3.47;;
71503;SDS011;59323;50.874;7.028;2024-01-25T01:18:49;33.80;;;4.13;;
71503;SDS011;59323;50.874;7.028;2024-01-25T01:21:14;42.03;;;4.50;;
71503;SDS011;59323;50.874;7.028;2024-01-25T01:23:42;38.20;;;4.33;;
71503;SDS011;59323;50.874;7.028;2024-01-25T01:26:10;22.73;;;3.88;;
71503;SDS011;59323;50.874;7.028;2024-01-25T01:28:36;33.37;;;4.30;;
71503;SDS011;59323;50.874;7.028;2024-01-25T01:31:01;26.77;;;5.23;;
71503;SDS011;59323;50.874;7.028;2024-01-25T01:33:27;27.83;;;4.45;;
71503;SDS011;59323;50.874;7.028;2024-01-25T01:35:52;40.77;;;3.70;;
71503;SDS011;59323;50.874;7.028;2024-01-25T01:38:18;34.70;;;4.27;;
71503;SDS011;59323;50.874;7.028;2024-01-25T01:40:44;33.90;;;4.03;;
71503;SDS011;59323;50.874;7.028;2024-01-25T01:43:18;27.88;;;3.42;;
71503;SDS011;59323;50.874;7.028;2024-01-25T01:45:44;32.55;;;4.45;;
71503;SDS011;59323;50.874;7.028;2024-01-25T01:48:10;34.53;;;4.50;;
71503;SDS011;59323;50.874;7.028;2024-01-25T01:50:35;27.83;;;4.13;;
71503;SDS011;59323;50.874;7.028;2024-01-25T01:53:00;27.25;;;3.78;;
71503;SDS011;59323;50.874;7.028;2024-01-25T01:55:26;44.70;;;5.83;;
71503;SDS011;59323;50.874;7.028;2024-01-25T01:57:52;42.88;;;4.90;;
71503;SDS011;59323;50.874;7.028;2024-01-25T02:00:17;35.63;;;4.83;;
71503;SDS011;59323;50.874;7.028;2024-01-25T02:02:43;32.07;;;4.23;;
71503;SDS011;59323;50.874;7.028;2024-01-25T02:05:10;35.83;;;4.03;;
71503;SDS011;59323;50.874;7.028;2024-01-25T02:07:36;29.37;;;3.57;;
71503;SDS011;59323;50.874;7.028;2024-01-25T02:10:03;38.17;;;4.07;;
71503;SDS011;59323;50.874;7.028;2024-01-25T02:12:28;25.67;;;3.17;;
71503;SDS011;59323;50.874;7.028;2024-01-25T02:14:54;30.90;;;4.57;;
71503;SDS011;59323;50.874;7.028;2024-01-25T02:17:20;30.57;;;3.83;;
71503;SDS011;59323;50.874;7.028;2024-01-25T02:19:45;26.07;;;4.03;;
71503;SDS011;59323;50.874;7.028;2024-01-25T02:22:10;33.30;;;4.07;;
71503;SDS011;59323;50.874;7.028;2024-01-25T02:24:36;33.20;;;4.43;;
71503;SDS011;59323;50.874;7.028;2024-01-25T02:27:01;39.57;;;4.37;;
71503;SDS011;59323;50.874;7.028;2024-01-25T02:29:30;31.55;;;3.50;;
71503;SDS011;59323;50.874;7.028;2024-01-25T02:31:55;31.53;;;4.60;;
71503;SDS011;59323;50.874;7.028;2024-01-25T02:34:20;24.67;;;3.77;;
71503;SDS011;59323;50.874;7.028;2024-01-25T02:36:45;28.80;;;3.77;;
71503;SDS011;59323;50.874;7.028;2024-01-25T02:39:11;32.53;;;3.80;;
71503;SDS011;59323;50.874;7.028;2024-01-25T02:41:36;37.83;;;4.23;;
71503;SDS011;59323;50.874;7.028;2024-01-25T02:44:01;35.90;;;4.03;;
71503;SDS011;59323;50.874;7.028;2024-01-25T02:46:27;31.63;;;4.67;;
71503;SDS011;59323;50.874;7.028;2024-01-25T02:48:52;28.07;;;3.87;;
71503;SDS011;59323;50.874;7.028;2024-01-25T02:51:17;40.17;;;4.97;;
71503;SDS011;59323;50.874;7.028;2024-01-25T02:53:43;39.60;;;4.17;;
71503;SDS011;59323;50.874;7.028;2024-01-25T02:56:08;34.17;;;3.70;;
71503;SDS011;59323;50.874;7.028;2024-01-25T02:58:33;25.37;;;3.87;;
71503;SDS011;59323;50.874;7.028;2024-01-25T03:00:59;32.13;;;4.07;;
71503;SDS011;59323;50.874;7.028;2024-01-25T03:03:24;39.70;;;4.17;;
71503;SDS011;59323;50.874;7.028;2024-01-25T03:05:52;26.33;;;4.77;;
71503;SDS011;59323;50.874;7.028;2024-01-25T03:08:18;29.33;;;3.17;;
71503;SDS011;59323;50.874;7.028;2024-01-25T03:10:43;34.00;;;3.63;;
71503;SDS011;59323;50.874;7.028;2024-01-25T03:13:08;27.83;;;3.80;;
71503;SDS011;59323;50.874;7.028;2024-01-25T03:15:34;38.17;;;3.97;;
71503;SDS011;59323;50.874;7.028;2024-01-25T03:17:59;22.58;;;4.13;;
71503;SDS011;59323;50.874;7.028;2024-01-25T03:20:24;30.30;;;4.77;;
71503;SDS011;59323;50.874;7.028;2024-01-25T03:22:50;35.03;;;4.80;;
71503;SDS011;59323;50.874;7.028;2024-01-25T03:25:15;33.83;;;3.93;;
71503;SDS011;59323;50.874;7.028;2024-01-25T03:27:41;32.00;;;4.07;;
71503;SDS011;59323;50.874;7.028;2024-01-25T03:30:06;23.92;;;3.15;;
71503;SDS011;59323;50.874;7.028;2024-01-25T03:32:33;26.33;;;3.23;;
71503;SDS011;59323;50.874;7.028;2024-01-25T03:34:59;28.00;;;3.80;;
71503;SDS011;59323;50.874;7.028;2024-01-25T03:37:24;30.27;;;3.90;;
71503;SDS011;59323;50.874;7.028;2024-01-25T03:39:49;33.97;;;4.30;;
71503;SDS011;59323;50.874;7.028;2024-01-25T03:42:15;30.50;;;3.97;;
71503;SDS011;59323;50.874;7.028;2024-01-25T03:44:40;29.50;;;4.00;;
71503;SDS011;59323;50.874;7.028;2024-01-25T03:47:07;32.87;;;4.07;;
71503;SDS011;59323;50.874;7.028;2024-01-25T03:49:32;33.80;;;4.15;;
71503;SDS011;59323;50.874;7.028;2024-01-25T03:51:58;30.50;;;3.67;;
71503;SDS011;59323;50.874;7.028;2024-01-25T03:54:23;31.97;;;4.07;;
71503;SDS011;59323;50.874;7.028;2024-01-25T03:56:48;31.47;;;4.47;;
71503;SDS011;59323;50.874;7.028;2024-01-25T03:59:14;29.33;;;4.07;;
71503;SDS011;59323;50.874;7.028;2024-01-25T04:01:46;30.13;;;3.63;;
71503;SDS011;59323;50.874;7.028;2024-01-25T04:04:12;36.97;;;4.88;;
71503;SDS011;59323;50.874;7.028;2024-01-25T04:06:40;25.57;;;3.67;;
71503;SDS011;59323;50.874;7.028;2024-01-25T04:09:07;35.42;;;4.20;;
71503;SDS011;59323;50.874;7.028;2024-01-25T04:11:32;22.67;;;2.97;;
71503;SDS011;59323;50.874;7.028;2024-01-25T04:13:57;33.93;;;4.07;;
71503;SDS011;59323;50.874;7.028;2024-01-25T04:16:24;24.83;;;3.42;;
71503;SDS011;59323;50.874;7.028;2024-01-25T04:18:49;30.63;;;3.85;;
71503;SDS011;59323;50.874;7.028;2024-01-25T04:21:16;26.83;;;3.57;;
71503;SDS011;59323;50.874;7.028;2024-01-25T04:23:43;27.65;;;3.80;;
71503;SDS011;59323;50.874;7.028;2024-01-25T04:26:08;25.47;;;3.47;;
71503;SDS011;59323;50.874;7.028;2024-01-25T04:28:33;19.60;;;3.20;;
71503;SDS011;59323;50.874;7.028;2024-01-25T04:30:59;28.73;;;3.47;;
71503;SDS011;59323;50.874;7.028;2024-01-25T04:33:24;26.07;;;3.77;;
71503;SDS011;59323;50.874;7.028;2024-01-25T04:35:49;23.05;;;3.28;;
71503;SDS011;59323;50.874;7.028;2024-01-25T04:38:15;24.43;;;4.27;;
71503;SDS011;59323;50.874;7.028;2024-01-25T04:40:40;31.30;;;4.03;;
71503;SDS011;59323;50.874;7.028;2024-01-25T04:43:05;28.27;;;4.33;;
71503;SDS011;59323;50.874;7.028;2024-01-25T04:45:31;33.60;;;4.97;;
71503;SDS011;59323;50.874;7.028;2024-01-25T04:47:56;32.87;;;3.80;;
71503;SDS011;59323;50.874;7.028;2024-01-25T04:50:21;29.20;;;4.32;;
71503;SDS011;59323;50.874;7.028;2024-01-25T04:52:47;25.77;;;4.10;;
71503;SDS011;59323;50.874;7.028;2024-01-25T04:55:12;24.93;;;3.70;;
71503;SDS011;59323;50.874;7.028;2024-01-25T04:57:37;28.07;;;3.67;;
71503;SDS011;59323;50.874;7.028;2024-01-25T05:00:03;26.93;;;4.10;;
71503;SDS011;59323;50.874;7.028;2024-01-25T05:02:29;24.13;;;3.70;;
71503;SDS011;59323;50.874;7.028;2024-01-25T05:04:54;30.20;;;4.83;;
71503;SDS011;59323;50.874;7.028;2024-01-25T05:07:20;28.93;;;3.70;;
71503;SDS011;59323;50.874;7.028;2024-01-25T05:09:45;23.05;;;3.33;;
71503;SDS011;59323;50.874;7.028;2024-01-25T05:12:11;17.10;;;3.43;;
71503;SDS011;59323;50.874;7.028;2024-01-25T05:14:36;23.07;;;2.97;;
71503;SDS011;59323;50.874;7.028;2024-01-25T05:17:01;26.13;;;3.40;;
71503;SDS011;59323;50.874;7.028;2024-01-25T05:19:27;27.40;;;4.23;;
71503;SDS011;59323;50.874;7.028;2024-01-25T05:21:52;22.65;;;3.42;;
71503;SDS011;59323;50.874;7.028;2024-01-25T05:24:17;21.90;;;3.30;;
71503;SDS011;59323;50.874;7.028;2024-01-25T05:26:43;18.67;;;3.40;;
71503;SDS011;59323;50.874;7.028;2024-01-25T05:29:11;31.65;;;3.60;;
71503;SDS011;59323;50.874;7.028;2024-01-25T05:31:36;24.53;;;3.43;;
71503;SDS011;59323;50.874;7.028;2024-01-25T05:34:02;21.05;;;3.95;;
71503;SDS011;59323;50.874;7.028;2024-01-25T05:36:28;23.43;;;3.60;;
71503;SDS011;59323;50.874;7.028;2024-01-25T05:38:53;18.73;;;2.97;;
71503;SDS011;59323;50.874;7.028;2024-01-25T05:41:18;21.27;;;3.27;;
71503;SDS011;59323;50.874;7.028;2024-01-25T05:43:44;20.43;;;3.53;;
71503;SDS011;59323;50.874;7.028;2024-01-25T05:46:12;24.00;;;3.55;;
71503;SDS011;59323;50.874;7.028;2024-01-25T05:48:37;19.43;;;3.37;;
71503;SDS011;59323;50.874;7.028;2024-01-25T05:51:03;16.15;;;3.38;;
71503;SDS011;59323;50.874;7.028;2024-01-25T05:53:28;26.27;;;3.97;;
71503;SDS011;59323;50.874;7.028;2024-01-25T05:55:53;23.70;;;4.27;;
71503;SDS011;59323;50.874;7.028;2024-01-25T05:58:19;27.03;;;4.20;;
71503;SDS011;59323;50.874;7.028;2024-01-25T06:00:44;20.27;;;3.23;;
71503;SDS011;59323;50.874;7.028;2024-01-25T06:03:10;26.02;;;3.83;;
71503;SDS011;59323;50.874;7.028;2024-01-25T06:05:35;26.80;;;3.50;;
71503;SDS011;59323;50.874;7.028;2024-01-25T06:08:00;19.17;;;3.07;;
71503;SDS011;59323;50.874;7.028;2024-01-25T06:10:26;26.07;;;3.40;;
71503;SDS011;59323;50.874;7.028;2024-01-25T06:12:51;20.13;;;3.17;;
71503;SDS011;59323;50.874;7.028;2024-01-25T06:15:17;24.17;;;3.78;;
71503;SDS011;59323;50.874;7.028;2024-01-25T06:17:42;23.43;;;4.13;;
71503;SDS011;59323;50.874;7.028;2024-01-25T06:20:07;21.17;;;3.33;;
71503;SDS011;59323;50.874;7.028;2024-01-25T06:22:35;15.82;;;3.20;;
71503;SDS011;59323;50.874;7.028;2024-01-25T06:25:00;27.47;;;3.63;;
71503;SDS011;59323;50.874;7.028;2024-01-25T06:27:26;21.23;;;3.40;;
71503;SDS011;59323;50.874;7.028;2024-01-25T06:29:51;18.67;;;2.87;;
71503;SDS011;59323;50.874;7.028;2024-01-25T06:32:16;17.87;;;2.80;;
71503;SDS011;59323;50.874;7.028;2024-01-25T06:34:42;20.53;;;3.83;;
71503;SDS011;59323;50.874;7.028;2024-01-25T06:37:07;24.70;;;3.53;;
71503;SDS011;59323;50.874;7.028;2024-01-25T06:39:32;21.03;;;3.40;;
71503;SDS011;59323;50.874;7.028;2024-01-25T06:41:59;30.42;;;3.88;;
71503;SDS011;59323;50.874;7.028;2024-01-25T06:44:24;19.17;;;3.03;;
71503;SDS011;59323;50.874;7.028;2024-01-25T06:46:50;21.00;;;3.27;;
71503;SDS011;59323;50.874;7.028;2024-01-25T06:49:15;23.60;;;3.70;;
71503;SDS011;59323;50.874;7.028;2024-01-25T06:51:40;25.55;;;3.45;;
71503;SDS011;59323;50.874;7.028;2024-01-25T06:54:06;27.80;;;4.67;;
71503;SDS011;59323;50.874;7.028;2024-01-25T06:56:31;24.77;;;3.87;;
71503;SDS011;59323;50.874;7.028;2024-01-25T06:58:58;25.20;;;4.45;;
71503;SDS011;59323;50.874;7.028;2024-01-25T07:01:23;27.80;;;4.00;;
71503;SDS011;59323;50.874;7.028;2024-01-25T07:03:52;32.87;;;4.30;;
71503;SDS011;59323;50.874;7.028;2024-01-25T07:06:20;23.00;;;3.47;;
71503;SDS011;59323;50.874;7.028;2024-01-25T07:08:49;27.75;;;3.80;;
71503;SDS011;59323;50.874;7.028;2024-01-25T07:11:24;26.20;;;4.13;;
71503;SDS011;59323;50.874;7.028;2024-01-25T07:13:50;33.87;;;4.07;;
71503;SDS011;59323;50.874;7.028;2024-01-25T07:16:16;32.10;;;4.35;;
71503;SDS011;59323;50.874;7.028;2024-01-25T07:18:41;34.67;;;4.60;;
71503;SDS011;59323;50.874;7.028;2024-01-25T07:21:06;32.83;;;5.07;;
71503;SDS011;59323;50.874;7.028;2024-01-25T07:23:33;25.98;;;4.43;;
71503;SDS011;59323;50.874;7.028;2024-01-25T07:25:58;32.10;;;5.10;;
71503;SDS011;59323;50.874;7.028;2024-01-25T07:28:29;29.88;;;4.22;;
71503;SDS011;59323;50.874;7.028;2024-01-25T07:30:55;42.78;;;4.55;;
71503;SDS011;59323;50.874;7.028;2024-01-25T07:33:20;27.73;;;4.03;;
71503;SDS011;59323;50.874;7.028;2024-01-25T07:36:09;26.52;;;3.85;;
71503;SDS011;59323;50.874;7.028;2024-01-25T07:38:49;34.20;;;4.40;;
71503;SDS011;59323;50.874;7.028;2024-01-25T07:42:09;31.15;;;4.85;;
71503;SDS011;59323;50.874;7.028;2024-01-25T07:48:00;30.80;;;3.83;;
71503;SDS011;59323;50.874;7.028;2024-01-25T07:51:10;31.42;;;3.70;;
71503;SDS011;59323;50.874;7.028;2024-01-25T07:54:08;29.25;;;5.03;;
71503;SDS011;59323;50.874;7.028;2024-01-25T07:56:34;30.08;;;4.25;;
71503;SDS011;59323;50.874;7.028;2024-01-25T07:59:00;34.90;;;4.93;;
71503;SDS011;59323;50.874;7.028;2024-01-25T08:01:46;30.75;;;4.75;;
71503;SDS011;59323;50.874;7.028;2024-01-25T08:04:11;31.20;;;5.13;;
71503;SDS011;59323;50.874;7.028;2024-01-25T08:06:45;32.47;;;5.18;;
71503;SDS011;59323;50.874;7.028;2024-01-25T08:09:13;37.73;;;5.83;;
71503;SDS011;59323;50.874;7.028;2024-01-25T08:11:46;28.25;;;5.25;;
71503;SDS011;59323;50.874;7.028;2024-01-25T08:14:19;28.90;;;6.07;;
71503;SDS011;59323;50.874;7.028;2024-01-25T08:16:45;36.43;;;5.33;;
71503;SDS011;59323;50.874;7.028;2024-01-25T08:19:11;36.88;;;5.70;;
71503;SDS011;59323;50.874;7.028;2024-01-25T08:21:42;26.73;;;5.40;;
71503;SDS011;59323;50.874;7.028;2024-01-25T08:24:11;35.72;;;5.97;;
71503;SDS011;59323;50.874;7.028;2024-01-25T08:26:36;40.50;;;7.07;;
71503;SDS011;59323;50.874;7.028;2024-01-25T08:29:02;32.53;;;5.30;;
71503;SDS011;59323;50.874;7.028;2024-01-25T08:31:27;30.27;;;4.93;;
71503;SDS011;59323;50.874;7.028;2024-01-25T08:33:52;33.80;;;5.87;;
71503;SDS011;59323;50.874;7.028;2024-01-25T08:36:18;37.95;;;5.38;;
71503;SDS011;59323;50.874;7.028;2024-01-25T08:38:44;34.23;;;5.20;;
71503;SDS011;59323;50.874;7.028;2024-01-25T08:41:09;34.03;;;5.97;;
71503;SDS011;59323;50.874;7.028;2024-01-25T08:43:36;30.02;;;5.80;;
71503;SDS011;59323;50.874;7.028;2024-01-25T08:46:02;39.73;;;5.83;;
71503;SDS011;59323;50.874;7.028;2024-01-25T08:48:27;39.20;;;6.50;;
71503;SDS011;59323;50.874;7.028;2024-01-25T08:50:53;39.13;;;7.18;;
71503;SDS011;59323;50.874;7.028;2024-01-25T08:53:19;34.28;;;6.03;;
71503;SDS011;59323;50.874;7.028;2024-01-25T08:55:47;24.73;;;5.80;;
71503;SDS011;59323;50.874;7.028;2024-01-25T08:58:20;29.58;;;5.15;;
71503;SDS011;59323;50.874;7.028;2024-01-25T09:00:46;28.90;;;5.60;;
71503;SDS011;59323;50.874;7.028;2024-01-25T09:03:11;40.07;;;7.67;;
71503;SDS011;59323;50.874;7.028;2024-01-25T09:05:36;31.53;;;5.93;;
71503;SDS011;59323;50.874;7.028;2024-01-25T09:08:05;39.63;;;8.07;;
71503;SDS011;59323;50.874;7.028;2024-01-25T09:10:31;34.55;;;7.15;;
71503;SDS011;59323;50.874;7.028;2024-01-25T09:12:58;28.97;;;6.33;;
71503;SDS011;59323;50.874;7.028;2024-01-25T09:15:23;39.85;;;8.05;;
71503;SDS011;59323;50.874;7.028;2024-01-25T09:17:48;30.60;;;7.70;;
71503;SDS011;59323;50.874;7.028;2024-01-25T09:20:15;26.97;;;7.37;;
71503;SDS011;59323;50.874;7.028;2024-01-25T09:22:41;39.63;;;8.50;;
71503;SDS011;59323;50.874;7.028;2024-01-25T09:25:06;38.17;;;7.43;;
71503;SDS011;59323;50.874;7.028;2024-01-25T09:27:33;34.58;;;6.88;;
71503;SDS011;59323;50.874;7.028;2024-01-25T09:29:59;37.75;;;6.38;;
71503;SDS011;59323;50.874;7.028;2024-01-25T09:32:24;33.90;;;6.40;;
71503;SDS011;59323;50.874;7.028;2024-01-25T09:34:50;33.70;;;6.30;;
71503;SDS011;59323;50.874;7.028;2024-01-25T09:37:15;26.23;;;5.97;;
71503;SDS011;59323;50.874;7.028;2024-01-25T09:39:42;31.30;;;7.13;;
71503;SDS011;59323;50.874;7.028;2024-01-25T09:42:08;30.13;;;5.67;;
71503;SDS011;59323;50.874;7.028;2024-01-25T09:44:36;31.38;;;6.45;;
71503;SDS011;59323;50.874;7.028;2024-01-25T09:47:03;31.50;;;6.90;;
71503;SDS011;59323;50.874;7.028;2024-01-25T09:49:36;31.55;;;6.10;;
71503;SDS011;59323;50.874;7.028;2024-01-25T09:52:02;37.97;;;6.37;;
71503;SDS011;59323;50.874;7.028;2024-01-25T09:54:40;37.15;;;7.47;;
71503;SDS011;59323;50.874;7.028;2024-01-25T09:57:24;39.63;;;6.72;;
71503;SDS011;59323;50.874;7.028;2024-01-25T09:59:53;26.33;;;5.80;;
71503;SDS011;59323;50.874;7.028;2024-01-25T10:02:22;32.83;;;6.50;;
71503;SDS011;59323;50.874;7.028;2024-01-25T10:04:49;33.63;;;6.53;;
71503;SDS011;59323;50.874;7.028;2024-01-25T10:07:38;37.90;;;6.77;;
71503;SDS011;59323;50.874;7.028;2024-01-25T10:10:08;37.05;;;6.57;;
71503;SDS011;59323;50.874;7.028;2024-01-25T10:12:38;28.55;;;6.50;;
71503;SDS011;59323;50.874;7.028;2024-01-25T10:15:06;29.45;;;6.25;;
71503;SDS011;59323;50.874;7.028;2024-01-25T10:17:32;31.48;;;5.95;;
71503;SDS011;59323;50.874;7.028;2024-01-25T10:19:58;35.13;;;7.00;;
71503;SDS011;59323;50.874;7.028;2024-01-25T10:22:29;28.83;;;5.85;;
71503;SDS011;59323;50.874;7.028;2024-01-25T10:24:57;29.45;;;6.22;;
71503;SDS011;59323;50.874;7.028;2024-01-25T10:27:23;27.60;;;6.17;;
71503;SDS011;59323;50.874;7.028;2024-01-25T10:29:55;29.60;;;6.43;;
71503;SDS011;59323;50.874;7.028;2024-01-25T10:32:21;30.13;;;5.83;;
71503;SDS011;59323;50.874;7.028;2024-01-25T10:34:46;30.27;;;7.20;;
71503;SDS011;59323;50.874;7.028;2024-01-25T10:37:14;25.88;;;6.28;;
71503;SDS011;59323;50.874;7.028;2024-01-25T10:39:41;28.67;;;6.03;;
71503;SDS011;59323;50.874;7.028;2024-01-25T10:42:06;42.43;;;7.40;;
71503;SDS011;59323;50.874;7.028;2024-01-25T10:44:32;33.03;;;6.87;;
71503;SDS011;59323;50.874;7.028;2024-01-25T10:46:57;40.30;;;6.63;;
71503;SDS011;59323;50.874;7.028;2024-01-25T10:49:24;29.63;;;5.53;;
71503;SDS011;59323;50.874;7.028;2024-01-25T10:51:51;38.17;;;6.00;;
71503;SDS011;59323;50.874;7.028;2024-01-25T10:54:29;38.20;;;6.23;;
71503;SDS011;59323;50.874;7.028;2024-01-25T10:56:59;24.45;;;5.07;;
71503;SDS011;59323;50.874;7.028;2024-01-25T10:59:34;31.92;;;4.90;;
71503;SDS011;59323;50.874;7.028;2024-01-25T11:02:00;26.23;;;4.97;;
71503;SDS011;59323;50.874;7.028;2024-01-25T11:04:29;24.30;;;6.13;;
71503;SDS011;59323;50.874;7.028;2024-01-25T11:07:03;31.17;;;5.53;;
71503;SDS011;59323;50.874;7.028;2024-01-25T11:09:31;22.38;;;5.13;;
71503;SDS011;59323;50.874;7.028;2024-01-25T11:11:59;30.35;;;5.47;;
71503;SDS011;59323;50.874;7.028;2024-01-25T11:14:25;18.10;;;4.57;;
71503;SDS011;59323;50.874;7.028;2024-01-25T11:16:50;29.73;;;4.57;;
71503;SDS011;59323;50.874;7.028;2024-01-25T11:19:19;26.40;;;4.47;;
71503;SDS011;59323;50.874;7.028;2024-01-25T11:21:46;24.38;;;5.00;;
71503;SDS011;59323;50.874;7.028;2024-01-25T11:24:14;25.45;;;5.45;;
71503;SDS011;59323;50.874;7.028;2024-01-25T11:27:02;25.10;;;4.33;;
71503;SDS011;59323;50.874;7.028;2024-01-25T11:29:29;24.30;;;4.72;;
71503;SDS011;59323;50.874;7.028;2024-01-25T11:31:55;20.88;;;4.40;;
71503;SDS011;59323;50.874;7.028;2024-01-25T11:34:22;32.95;;;4.97;;
71503;SDS011;59323;50.874;7.028;2024-01-25T11:36:48;27.05;;;4.57;;
71503;SDS011;59323;50.874;7.028;2024-01-25T11:39:17;25.47;;;5.23;;
71503;SDS011;59323;50.874;7.028;2024-01-25T11:41:46;27.65;;;5.07;;
71503;SDS011;59323;50.874;7.028;2024-01-25T11:44:18;23.95;;;4.13;;
71503;SDS011;59323;50.874;7.028;2024-01-25T11:46:44;17.42;;;4.28;;
71503;SDS011;59323;50.874;7.028;2024-01-25T11:49:19;24.13;;;4.73;;
71503;SDS011;59323;50.874;7.028;2024-01-25T11:51:44;25.95;;;4.15;;
71503;SDS011;59323;50.874;7.028;2024-01-25T11:54:10;20.70;;;3.97;;
71503;SDS011;59323;50.874;7.028;2024-01-25T11:56:37;21.63;;;3.95;;
71503;SDS011;59323;50.874;7.028;2024-01-25T11:59:05;26.03;;;3.67;;
71503;SDS011;59323;50.874;7.028;2024-01-25T12:01:42;22.48;;;3.53;;
71503;SDS011;59323;50.874;7.028;2024-01-25T12:04:11;26.98;;;3.45;;
71503;SDS011;59323;50.874;7.028;2024-01-25T12:06:44;22.08;;;3.75;;
71503;SDS011;59323;50.874;7.028;2024-01-25T12:09:11;22.45;;;3.90;;
71503;SDS011;59323;50.874;7.028;2024-01-25T12:14:59;25.33;;;3.40;;
71503;SDS011;59323;50.874;7.028;2024-01-25T12:17:43;18.48;;;2.92;;
71503;SDS011;59323;50.874;7.028;2024-01-25T12:20:49;18.63;;;3.83;;
71503;SDS011;59323;50.874;7.028;2024-01-25T12:23:34;20.50;;;2.95;;
71503;SDS011;59323;50.874;7.028;2024-01-25T12:26:03;26.13;;;3.77;;
71503;SDS011;59323;50.874;7.028;2024-01-25T12:28:53;18.25;;;2.90;;
71503;SDS011;59323;50.874;7.028;2024-01-25T12:31:18;18.80;;;3.38;;
71503;SDS011;59323;50.874;7.028;2024-01-25T12:33:54;24.85;;;3.58;;
71503;SDS011;59323;50.874;7.028;2024-01-25T12:36:22;22.58;;;2.65;;
71503;SDS011;59323;50.874;7.028;2024-01-25T12:39:06;20.43;;;3.87;;
71503;SDS011;59323;50.874;7.028;2024-01-25T12:41:48;18.33;;;2.92;;
71503;SDS011;59323;50.874;7.028;2024-01-25T12:44:19;16.90;;;3.08;;
71503;SDS011;59323;50.874;7.028;2024-01-25T12:46:46;23.40;;;3.47;;
71503;SDS011;59323;50.874;7.028;2024-01-25T12:49:13;22.52;;;3.08;;
71503;SDS011;59323;50.874;7.028;2024-01-25T12:51:40;23.55;;;3.67;;
71503;SDS011;59323;50.874;7.028;2024-01-25T12:54:14;19.98;;;2.92;;
71503;SDS011;59323;50.874;7.028;2024-01-25T13:00:11;20.77;;;3.40;;
71503;SDS011;59323;50.874;7.028;2024-01-25T13:02:42;24.60;;;4.13;;
